Time;durP1;ratioP1;P1;durP2;ratioP2;P2;SDS_P1;SDS_P2;PMS_P1;PMS_P2;Temp;Humidity;BMP_temperature;BMP_pressure;BME280_temperature;BME280_humidity;BME280_pressure;Samples;Min_cycle;Max_cycle;Signal;HPM_P1;HPM_P2
2022/12/11 00:00:01;;;;;;;27.08;12.88;;;;;;;-2.65;100.00;95014.13;1047406;28;20569;-67
2022/12/11 00:00:32;;;;;;;23.68;13.24;;;;;;;-2.65;100.00;95005.63;1046989;28;20508;-68
2022/12/11 00:01:08;;;;;;;27.17;12.10;;;;;;;-2.61;100.00;95017.09;1047492;28;20075;-68
2022/12/11 00:01:39;;;;;;;27.76;12.50;;;;;;;-2.61;100.00;95017.88;1047203;28;20028;-68
2022/12/11 00:02:09;;;;;;;26.35;13.13;;;;;;;-2.64;100.00;95015.69;1042965;28;20083;-67
2022/12/11 00:02:39;;;;;;;26.02;12.80;;;;;;;-2.63;100.00;95019.06;1040213;28;20065;-69
2022/12/11 00:03:10;;;;;;;27.90;13.07;;;;;;;-2.63;100.00;95016.50;1042656;28;20056;-67
2022/12/11 00:03:41;;;;;;;25.95;12.77;;;;;;;-2.62;100.00;95015.50;1039339;28;20471;-68
2022/12/11 00:04:11;;;;;;;25.05;12.57;;;;;;;-2.63;100.00;95016.50;1042884;28;20045;-67
2022/12/11 00:04:45;;;;;;;27.80;13.14;;;;;;;-2.70;100.00;95016.50;1038847;28;20025;-67
2022/12/11 00:05:16;;;;;;;25.48;12.65;;;;;;;-2.71;100.00;95024.41;1033577;28;20105;-69
2022/12/11 00:05:46;;;;;;;26.13;12.05;;;;;;;-2.69;100.00;95020.63;1035285;28;20030;-68
2022/12/11 00:06:18;;;;;;;24.23;11.65;;;;;;;-2.69;100.00;95020.63;1043016;28;20025;-69
2022/12/11 00:06:49;;;;;;;24.58;12.62;;;;;;;-2.70;100.00;95015.69;1039932;28;20100;-68
2022/12/11 00:07:19;;;;;;;26.52;12.65;;;;;;;-2.67;100.00;95023.00;1047103;28;20494;-70
2022/12/11 00:07:50;;;;;;;27.55;12.90;;;;;;;-2.67;100.00;95013.53;1047162;28;20593;-68
2022/12/11 00:08:20;;;;;;;24.38;13.20;;;;;;;-2.65;100.00;95018.44;1047571;28;20021;-68
2022/12/11 00:08:52;;;;;;;27.42;12.95;;;;;;;-2.67;100.00;95010.97;1051412;28;20686;-69
2022/12/11 00:09:23;;;;;;;26.86;12.84;;;;;;;-2.65;100.00;95011.56;1051228;28;20020;-67
2022/12/11 00:09:53;;;;;;;24.85;12.43;;;;;;;-2.61;100.00;95015.31;1051322;28;20065;-68
2022/12/11 00:10:24;;;;;;;24.33;12.50;;;;;;;-2.58;100.00;95015.88;1051494;28;20020;-70
2022/12/11 00:10:54;;;;;;;22.65;11.63;;;;;;;-2.56;100.00;95017.28;1047164;28;20501;-73
2022/12/11 00:11:25;;;;;;;22.63;11.63;;;;;;;-2.58;100.00;95019.28;1042757;28;20427;-67
2022/12/11 00:11:55;;;;;;;27.33;12.63;;;;;;;-2.57;100.00;95012.34;1039060;28;20052;-69
2022/12/11 00:12:26;;;;;;;25.83;12.40;;;;;;;-2.56;100.00;95012.13;1037908;28;20029;-69
2022/12/11 00:12:57;;;;;;;22.00;12.80;;;;;;;-2.59;100.00;95011.75;1038601;28;20088;-68
2022/12/11 00:13:27;;;;;;;24.63;11.80;;;;;;;-2.60;100.00;95018.66;1047248;28;20502;-68
2022/12/11 00:13:58;;;;;;;24.87;12.83;;;;;;;-2.58;100.00;95011.56;1051463;28;20048;-69
2022/12/11 00:14:28;;;;;;;21.17;12.10;;;;;;;-2.56;100.00;95014.69;1047278;28;20060;-68
2022/12/11 00:14:59;;;;;;;26.20;12.43;;;;;;;-2.52;100.00;95021.03;1047214;28;20610;-67
2022/12/11 00:15:29;;;;;;;29.17;13.77;;;;;;;-2.62;100.00;95021.44;1046802;28;20098;-67
2022/12/11 00:16:00;;;;;;;25.95;13.13;;;;;;;-2.63;100.00;95024.97;1047389;28;20020;-68
2022/12/11 00:16:30;;;;;;;24.20;12.00;;;;;;;-2.64;100.00;95025.19;1051110;28;20063;-67
2022/12/11 00:17:01;;;;;;;22.92;12.15;;;;;;;-2.61;100.00;95017.09;1051805;28;20024;-69
2022/12/11 00:17:31;;;;;;;24.63;12.25;;;;;;;-2.59;100.00;95022.81;1051519;28;20397;-69
2022/12/11 00:18:02;;;;;;;22.70;12.02;;;;;;;-2.62;100.00;95023.19;1051285;28;20016;-68
2022/12/11 00:18:32;;;;;;;25.65;11.68;;;;;;;-2.63;100.00;95019.84;1051483;28;20020;-68
2022/12/11 00:19:03;;;;;;;25.25;12.40;;;;;;;-2.64;100.00;95017.47;1050678;28;20098;-67
2022/12/11 00:19:33;;;;;;;24.98;12.52;;;;;;;-2.61;100.00;95022.22;1050309;28;20299;-68
2022/12/11 00:20:04;;;;;;;26.05;12.80;;;;;;;-2.61;100.00;95020.44;1051568;28;20042;-68
2022/12/11 00:20:35;;;;;;;23.73;12.80;;;;;;;-2.60;100.00;95013.53;1046963;28;20074;-68
2022/12/11 00:21:07;;;;;;;24.03;12.13;;;;;;;-2.62;100.00;95024.00;1036263;28;20283;-66
2022/12/11 00:21:37;;;;;;;24.52;12.05;;;;;;;-2.58;100.00;95015.88;1034120;28;20059;-68
2022/12/11 00:22:08;;;;;;;25.50;12.63;;;;;;;-2.56;100.00;95022.41;1034555;28;20084;-67
2022/12/11 00:22:38;;;;;;;23.98;13.10;;;;;;;-2.56;100.00;95012.13;1035335;28;20033;-71
2022/12/11 00:23:09;;;;;;;23.52;12.65;;;;;;;-2.58;100.00;95021.84;1048559;28;20044;-68
2022/12/11 00:23:40;;;;;;;27.65;12.80;;;;;;;-2.55;100.00;95015.50;1047344;28;20031;-66
2022/12/11 00:24:11;;;;;;;28.08;12.85;;;;;;;-2.52;100.00;95020.22;1049882;28;20016;-69
2022/12/11 00:24:44;;;;;;;26.77;12.95;;;;;;;-2.53;100.00;95018.66;1046690;28;20020;-67
2022/12/11 00:25:14;;;;;;;25.94;13.44;;;;;;;-2.54;100.00;95020.44;1043201;28;20035;-69
2022/12/11 00:25:45;;;;;;;24.30;12.23;;;;;;;-2.53;100.00;95018.66;1042901;28;20049;-67
2022/12/11 00:26:16;;;;;;;25.58;13.16;;;;;;;-2.73;100.00;95004.03;1039058;28;20040;-68
2022/12/11 00:26:46;;;;;;;26.75;12.85;;;;;;;-2.58;100.00;95015.88;1038085;28;20511;-69
2022/12/11 00:27:17;;;;;;;26.05;13.30;;;;;;;-2.63;100.00;95019.84;1042069;28;20060;-68
2022/12/11 00:27:47;;;;;;;25.02;12.70;;;;;;;-2.59;100.00;95022.03;1042386;28;20111;-71
2022/12/11 00:28:18;;;;;;;25.17;12.43;;;;;;;-2.61;100.00;95017.88;1042465;28;20111;-68
2022/12/11 00:28:54;;;;;;;26.98;13.43;;;;;;;-2.59;100.00;95024.59;1046220;28;20500;-70
2022/12/11 00:29:24;;;;;;;25.12;12.92;;;;;;;-2.76;100.00;95001.09;1047518;28;20561;-71
2022/12/11 00:29:55;;;;;;;27.35;14.02;;;;;;;-2.61;100.00;95017.88;1044565;28;20025;-69
2022/12/11 00:30:25;;;;;;;23.75;12.43;;;;;;;-2.64;100.00;95023.41;1044626;28;20020;-67
2022/12/11 00:30:56;;;;;;;29.02;13.82;;;;;;;-2.68;100.00;95021.44;1048779;28;20656;-67
2022/12/11 00:31:26;;;;;;;25.83;12.60;;;;;;;-2.67;100.00;95021.22;1050064;28;20794;-67
2022/12/11 00:31:57;;;;;;;23.98;12.43;;;;;;;-2.72;100.00;95018.44;1047824;28;20024;-68
2022/12/11 00:32:27;;;;;;;27.02;13.25;;;;;;;-2.85;100.00;95003.84;1049807;28;20496;-68
2022/12/11 00:32:58;;;;;;;26.73;12.87;;;;;;;-2.67;100.00;95028.94;1046862;28;20032;-68
2022/12/11 00:33:28;;;;;;;26.35;13.77;;;;;;;-2.68;100.00;95027.38;1045768;28;20493;-68
2022/12/11 00:34:00;;;;;;;23.98;12.15;;;;;;;-2.71;100.00;95030.31;1046851;28;20066;-69
2022/12/11 00:34:30;;;;;;;26.96;12.92;;;;;;;-2.69;100.00;95020.63;1047463;28;20935;-67
2022/12/11 00:35:01;;;;;;;28.48;13.73;;;;;;;-2.66;100.00;95024.59;1051754;28;20024;-70
2022/12/11 00:35:31;;;;;;;27.83;12.85;;;;;;;-2.67;100.00;95023.00;1051041;28;20348;-68
2022/12/11 00:36:02;;;;;;;25.67;12.73;;;;;;;-2.63;100.00;95026.75;1047207;28;20426;-68
2022/12/11 00:36:33;;;;;;;23.80;12.34;;;;;;;-2.63;100.00;95024.97;1047253;28;20035;-69
2022/12/11 00:37:03;;;;;;;27.23;12.93;;;;;;;-2.74;100.00;95020.44;1043159;28;20070;-67
2022/12/11 00:37:34;;;;;;;23.65;13.00;;;;;;;-2.71;100.00;95022.63;1047326;28;20435;-69
2022/12/11 00:38:04;;;;;;;25.83;13.73;;;;;;;-2.71;100.00;95022.63;1047020;28;20031;-69
2022/12/11 00:38:35;;;;;;;25.45;12.77;;;;;;;-2.66;100.00;95020.22;1047043;28;20039;-71
2022/12/11 00:39:05;;;;;;;27.10;13.20;;;;;;;-2.63;100.00;95022.41;1051290;28;20375;-67
2022/12/11 00:39:36;;;;;;;27.00;12.95;;;;;;;-2.67;100.00;95026.38;1050957;28;20060;-68
2022/12/11 00:40:07;;;;;;;29.54;13.62;;;;;;;-2.67;100.00;95021.22;1043729;28;20051;-70
2022/12/11 00:40:38;;;;;;;26.52;13.40;;;;;;;-2.64;100.00;95020.84;1045712;28;20039;-67
2022/12/11 00:41:08;;;;;;;27.20;13.33;;;;;;;-2.62;100.00;95021.44;1047074;28;20629;-68
2022/12/11 00:41:39;;;;;;;27.27;13.53;;;;;;;-2.70;100.00;95013.13;1043416;28;20029;-69
2022/12/11 00:42:09;;;;;;;27.58;13.55;;;;;;;-2.66;100.00;95024.59;1050743;28;20347;-68
2022/12/11 00:42:40;;;;;;;23.80;11.87;;;;;;;-2.74;100.00;94999.91;1045819;28;20607;-67
2022/12/11 00:43:10;;;;;;;26.20;13.48;;;;;;;-2.60;100.00;95018.66;1041775;28;20037;-69
2022/12/11 00:43:41;;;;;;;26.65;13.45;;;;;;;-2.61;100.00;95012.75;1044495;28;20036;-68
2022/12/11 00:44:11;;;;;;;27.55;12.57;;;;;;;-2.61;100.00;95014.53;1042743;28;20032;-68
2022/12/11 00:44:45;;;;;;;26.55;12.50;;;;;;;-2.61;100.00;95017.88;1042893;28;20021;-68
2022/12/11 00:45:15;;;;;;;28.46;14.14;;;;;;;-2.63;100.00;95014.72;1045596;28;20024;-68
2022/12/11 00:45:46;;;;;;;27.33;13.18;;;;;;;-2.63;100.00;95017.28;1047755;28;20036;-67
2022/12/11 00:46:16;;;;;;;27.73;13.77;;;;;;;-2.69;100.00;95020.63;1047247;28;20035;-70
2022/12/11 00:46:47;;;;;;;24.75;12.50;;;;;;;-2.65;100.00;95016.69;1047382;28;20028;-70
2022/12/11 00:47:17;;;;;;;27.75;13.80;;;;;;;-2.64;100.00;95013.13;1047408;28;20478;-68
2022/12/11 00:47:48;;;;;;;24.92;12.10;;;;;;;-2.61;100.00;95017.09;1047468;28;20028;-68
2022/12/11 00:48:18;;;;;;;29.30;14.07;;;;;;;-2.62;100.00;95011.16;1051584;28;20027;-69
2022/12/11 00:48:49;;;;;;;24.83;13.02;;;;;;;-2.65;100.00;95021.03;1051382;28;20028;-71
2022/12/11 00:49:19;;;;;;;23.90;12.45;;;;;;;-2.63;100.00;95014.72;1051569;28;20015;-68
2022/12/11 00:49:50;;;;;;;23.75;12.23;;;;;;;-2.62;100.00;95018.88;1042918;28;20025;-70
2022/12/11 00:50:20;;;;;;;22.67;12.77;;;;;;;-2.63;100.00;95013.91;1042981;28;20028;-68
2022/12/11 00:50:51;;;;;;;24.08;13.27;;;;;;;-2.78;100.00;95003.88;1038367;28;20467;-70
2022/12/11 00:51:21;;;;;;;23.27;12.07;;;;;;;-2.68;100.00;95024.78;1035371;28;20041;-68
2022/12/11 00:51:52;;;;;;;25.50;12.73;;;;;;;-2.66;100.00;95017.66;1042166;28;20430;-68
2022/12/11 00:52:23;;;;;;;24.08;12.45;;;;;;;-2.63;100.00;95019.84;1041881;28;20090;-70
2022/12/11 00:52:54;;;;;;;28.28;13.30;;;;;;;-2.64;100.00;95023.41;1044717;28;20033;-68
2022/12/11 00:53:24;;;;;;;25.45;12.98;;;;;;;-2.64;100.00;95020.06;1049401;28;20020;-67
2022/12/11 00:53:55;;;;;;;23.90;12.53;;;;;;;-2.63;100.00;95019.84;1046663;28;20055;-67
2022/12/11 00:54:25;;;;;;;24.98;12.20;;;;;;;-2.62;100.00;95023.19;1047459;28;20009;-70
2022/12/11 00:54:59;;;;;;;26.03;12.57;;;;;;;-2.62;100.00;95029.16;1039733;28;20400;-68
2022/12/11 00:55:30;;;;;;;25.02;12.92;;;;;;;-2.62;100.00;95026.56;1037159;28;20112;-68
2022/12/11 00:56:00;;;;;;;26.15;13.38;;;;;;;-2.76;100.00;95003.66;1043074;28;20029;-67
2022/12/11 00:56:31;;;;;;;23.42;12.25;;;;;;;-2.64;100.00;95020.84;1041045;28;20030;-70
2022/12/11 00:57:01;;;;;;;23.83;12.32;;;;;;;-2.60;100.00;95031.50;1046306;28;20052;-66
2022/12/11 00:57:31;;;;;;;23.77;11.88;;;;;;;-2.61;100.00;95017.09;1046407;28;20405;-69
2022/12/11 00:58:02;;;;;;;26.92;13.35;;;;;;;-2.61;100.00;95032.50;1038535;28;20028;-72
2022/12/11 00:58:36;;;;;;;24.14;12.50;;;;;;;-2.66;100.00;95030.50;1038440;28;20376;-67
2022/12/11 00:59:06;;;;;;;24.56;12.56;;;;;;;-2.67;100.00;95028.94;1038059;28;20030;-67
2022/12/11 00:59:37;;;;;;;24.15;12.18;;;;;;;-2.67;100.00;95028.94;1035814;28;20617;-68
2022/12/11 01:00:08;;;;;;;21.73;11.38;;;;;;;-2.66;100.00;95027.94;1037066;28;20132;-69
2022/12/11 01:00:39;;;;;;;23.72;11.80;;;;;;;-2.66;100.00;95030.50;1035217;28;20018;-69
2022/12/11 01:01:12;;;;;;;25.40;12.20;;;;;;;-2.63;100.00;95030.13;1041108;28;20540;-68
2022/12/11 01:01:42;;;;;;;24.34;12.18;;;;;;;-2.59;100.00;95024.59;1043065;28;20024;-67
2022/12/11 01:02:13;;;;;;;24.30;12.88;;;;;;;-2.60;100.00;95028.94;1046387;28;20073;-71
2022/12/11 01:02:46;;;;;;;24.42;12.98;;;;;;;-2.61;100.00;95025.59;1042943;28;20372;-68
2022/12/11 01:03:16;;;;;;;26.00;12.56;;;;;;;-2.62;100.00;95026.56;1042767;28;20021;-69
2022/12/11 01:03:47;;;;;;;27.00;12.85;;;;;;;-2.63;100.00;95034.47;1046624;28;20016;-68
2022/12/11 01:04:17;;;;;;;26.77;13.38;;;;;;;-2.64;100.00;95031.09;1045547;28;20445;-67
2022/12/11 01:04:48;;;;;;;26.53;12.23;;;;;;;-2.65;100.00;95026.16;1048569;28;20028;-71
2022/12/11 01:05:18;;;;;;;24.23;12.85;;;;;;;-2.64;100.00;95025.97;1045240;28;20029;-67
2022/12/11 01:05:52;;;;;;;22.67;11.60;;;;;;;-2.64;100.00;95032.88;1042656;28;20064;-68
2022/12/11 01:06:24;;;;;;;24.20;11.57;;;;;;;-2.62;100.00;95036.03;1048262;28;20031;-67
2022/12/11 01:06:54;;;;;;;25.70;12.60;;;;;;;-2.63;100.00;95034.47;1044695;28;20137;-68
2022/12/11 01:07:25;;;;;;;24.95;12.35;;;;;;;-2.62;100.00;95031.72;1044199;28;20079;-72
2022/12/11 01:07:55;;;;;;;22.00;11.30;;;;;;;-2.65;100.00;95037.25;1044390;28;20622;-67
2022/12/11 01:08:26;;;;;;;22.77;12.10;;;;;;;-2.63;100.00;95044.72;1044678;28;20522;-70
2022/12/11 01:10:34;;;;;;;26.38;12.05;;;;;;;-2.62;100.00;95041.16;1046638;28;20740;-69
2022/12/11 01:11:06;;;;;;;26.90;12.43;;;;;;;-2.61;100.00;95030.72;1047932;28;20090;-72
2022/12/11 01:11:40;;;;;;;26.38;12.84;;;;;;;-2.63;100.00;95034.47;1041345;28;20025;-68
2022/12/11 01:12:10;;;;;;;25.58;12.80;;;;;;;-2.62;100.00;95033.47;1034635;28;20026;-69
2022/12/11 01:12:41;;;;;;;28.08;13.45;;;;;;;-2.62;100.00;95029.16;1036282;28;20037;-68
2022/12/11 01:13:11;;;;;;;25.75;12.20;;;;;;;-2.63;100.00;95034.47;1039479;28;20586;-68
2022/12/11 01:13:42;;;;;;;25.63;13.45;;;;;;;-2.61;100.00;95033.28;1045105;28;20040;-67
2022/12/11 01:14:12;;;;;;;26.43;13.13;;;;;;;-2.64;100.00;95025.19;1049213;28;20421;-68
2022/12/11 01:14:43;;;;;;;26.85;13.30;;;;;;;-2.64;100.00;95033.69;1049627;28;20297;-68
2022/12/11 01:15:17;;;;;;;23.74;12.80;;;;;;;-2.63;100.00;95029.31;1050751;28;20012;-68
2022/12/11 01:15:47;;;;;;;28.08;13.76;;;;;;;-2.61;100.00;95035.84;1049873;28;20101;-68
2022/12/11 01:16:18;;;;;;;26.20;13.02;;;;;;;-2.69;100.00;95028.31;1049084;28;20069;-70
2022/12/11 01:16:48;;;;;;;23.17;12.23;;;;;;;-2.67;100.00;95031.50;1046577;28;20020;-68
2022/12/11 01:17:19;;;;;;;25.02;13.02;;;;;;;-2.67;100.00;95028.94;1045860;28;20062;-67
2022/12/11 01:17:49;;;;;;;26.85;12.45;;;;;;;-2.64;100.00;95033.69;1042029;28;20017;-67
2022/12/11 01:18:20;;;;;;;25.35;12.77;;;;;;;-2.68;100.00;95027.38;1043455;28;20032;-70
2022/12/11 01:18:50;;;;;;;27.63;14.45;;;;;;;-2.69;100.00;95030.91;1051003;28;20138;-69
2022/12/11 01:19:21;;;;;;;25.83;13.40;;;;;;;-2.68;100.00;95027.38;1047683;28;20020;-68
2022/12/11 01:19:54;;;;;;;30.25;13.13;;;;;;;-2.68;100.00;95035.06;1047809;28;20058;-68
2022/12/11 01:20:28;;;;;;;27.86;14.02;;;;;;;-2.66;100.00;95030.50;1050150;28;20077;-70
2022/12/11 01:20:58;;;;;;;23.83;11.88;;;;;;;-2.67;100.00;95034.06;1050893;28;20070;-69
2022/12/11 01:21:29;;;;;;;22.70;12.77;;;;;;;-2.67;100.00;95036.63;1051139;28;20024;-69
2022/12/11 01:21:59;;;;;;;29.10;13.30;;;;;;;-2.68;100.00;95031.72;1050855;28;20013;-67
2022/12/11 01:22:30;;;;;;;28.10;13.35;;;;;;;-2.66;100.00;95035.63;1050367;28;20836;-67
2022/12/11 01:23:00;;;;;;;26.45;13.52;;;;;;;-2.66;100.00;95029.72;1051538;28;20027;-68
2022/12/11 01:23:31;;;;;;;22.40;11.93;;;;;;;-2.67;100.00;95033.28;1051026;28;20481;-68
2022/12/11 01:24:01;;;;;;;27.02;12.80;;;;;;;-2.67;100.00;95034.06;1050756;28;20051;-67
2022/12/11 01:24:32;;;;;;;28.73;13.40;;;;;;;-2.72;100.00;95033.84;1046705;28;20695;-71
2022/12/11 01:25:03;;;;;;;24.10;12.63;;;;;;;-2.67;100.00;95033.28;1046736;28;20911;-68
2022/12/11 01:25:34;;;;;;;27.44;12.74;;;;;;;-2.65;100.00;95036.44;1046758;28;20021;-67
2022/12/11 01:26:09;;;;;;;26.02;13.98;;;;;;;-2.67;100.00;95034.06;1046118;28;20036;-70
2022/12/11 01:26:39;;;;;;;27.36;12.88;;;;;;;-2.66;100.00;95040.00;1046127;28;20479;-70
2022/12/11 01:27:13;;;;;;;25.05;13.10;;;;;;;-2.66;100.00;95034.84;1045866;28;20033;-67
2022/12/11 01:27:43;;;;;;;25.20;13.40;;;;;;;-2.67;100.00;95038.41;1051021;28;20158;-67
2022/12/11 01:28:14;;;;;;;25.05;12.98;;;;;;;-2.68;100.00;95031.72;1048278;28;20150;-68
2022/12/11 01:28:44;;;;;;;28.58;14.15;;;;;;;-2.72;100.00;95031.28;1043070;28;20472;-68
2022/12/11 01:29:15;;;;;;;26.42;13.55;;;;;;;-2.68;100.00;95039.41;1042803;28;20032;-69
2022/12/11 01:29:45;;;;;;;21.33;12.00;;;;;;;-2.67;100.00;95041.78;1042965;28;20062;-65
2022/12/11 01:30:16;;;;;;;26.10;12.68;;;;;;;-2.66;100.00;95037.41;1042664;28;20052;-67
2022/12/11 01:30:46;;;;;;;27.55;13.13;;;;;;;-2.69;100.00;95037.81;1045682;28;20074;-67
2022/12/11 01:31:18;;;;;;;25.98;13.68;;;;;;;-2.70;100.00;95038.81;1051289;28;20020;-68
2022/12/11 01:31:48;;;;;;;27.60;13.36;;;;;;;-2.85;100.00;95016.69;1046744;28;20031;-68
2022/12/11 01:32:19;;;;;;;23.50;13.05;;;;;;;-2.76;100.00;95040.38;1046572;28;20067;-71
2022/12/11 01:32:49;;;;;;;25.52;12.82;;;;;;;-2.74;100.00;95037.63;1050906;28;20016;-68
2022/12/11 01:33:19;;;;;;;27.95;14.23;;;;;;;-2.71;100.00;95038.03;1042549;28;20036;-69
2022/12/11 01:33:53;;;;;;;30.20;13.68;;;;;;;-2.69;100.00;95041.16;1043067;28;20043;-67
2022/12/11 01:34:23;;;;;;;23.46;12.48;;;;;;;-2.71;100.00;95043.16;1046847;28;20036;-69
2022/12/11 01:34:54;;;;;;;28.70;12.60;;;;;;;-2.72;100.00;95044.13;1043931;28;20029;-69
2022/12/11 01:35:24;;;;;;;28.85;13.75;;;;;;;-2.68;100.00;95047.13;1050897;28;20024;-67
2022/12/11 01:35:55;;;;;;;27.70;13.75;;;;;;;-2.69;100.00;95043.72;1049059;28;20020;-69
2022/12/11 01:36:25;;;;;;;25.90;13.73;;;;;;;-2.68;100.00;95047.91;1046359;28;20486;-69
2022/12/11 01:36:56;;;;;;;26.05;12.75;;;;;;;-2.69;100.00;95051.44;1042311;28;20063;-68
2022/12/11 01:37:26;;;;;;;25.60;12.90;;;;;;;-2.69;100.00;95051.44;1042315;28;20044;-67
2022/12/11 01:37:58;;;;;;;30.77;13.55;;;;;;;-2.69;100.00;95056.56;1042797;28;20044;-69
2022/12/11 01:38:28;;;;;;;31.18;14.48;;;;;;;-2.70;100.00;95051.66;1050990;28;20060;-68
2022/12/11 01:38:59;;;;;;;28.70;13.93;;;;;;;-2.68;100.00;95053.03;1048162;28;20032;-71
2022/12/11 01:39:29;;;;;;;26.48;13.90;;;;;;;-2.69;100.00;95051.44;1046794;28;20267;-68
2022/12/11 01:40:00;;;;;;;28.45;13.25;;;;;;;-2.68;100.00;95062.53;1049415;28;20105;-69
2022/12/11 01:40:30;;;;;;;26.70;12.98;;;;;;;-2.72;100.00;95051.81;1051060;28;20405;-68
2022/12/11 01:41:01;;;;;;;27.17;13.48;;;;;;;-2.72;100.00;95049.25;1050925;28;20024;-70
2022/12/11 01:41:31;;;;;;;26.55;13.05;;;;;;;-2.71;100.00;95044.94;1046917;28;20617;-67
2022/12/11 01:42:02;;;;;;;29.73;14.15;;;;;;;-2.72;100.00;95051.81;1051204;28;20024;-69
2022/12/11 01:42:33;;;;;;;26.92;12.65;;;;;;;-2.73;100.00;95052.03;1049888;28;20048;-68
2022/12/11 01:43:03;;;;;;;30.70;13.45;;;;;;;-2.74;100.00;95047.91;1045523;28;20135;-68
2022/12/11 01:43:34;;;;;;;25.48;13.40;;;;;;;-2.74;100.00;95046.13;1046923;28;20103;-68
2022/12/11 01:44:07;;;;;;;26.02;12.65;;;;;;;-2.74;100.00;95043.56;1042780;28;20033;-71
2022/12/11 01:44:37;;;;;;;28.64;14.28;;;;;;;-2.69;100.00;95046.31;1039341;28;20079;-68
2022/12/11 01:45:32;;;;;;;28.95;14.63;;;;;;;-2.73;100.00;95049.47;1042501;28;20206;-67
2022/12/11 01:46:02;;;;;;;26.66;12.54;;;;;;;-2.74;100.00;95043.56;1042507;28;20422;-67
2022/12/11 01:46:34;;;;;;;31.10;13.35;;;;;;;-2.75;100.00;95046.28;1045446;28;20080;-69
2022/12/11 01:47:04;;;;;;;25.30;12.46;;;;;;;-2.75;100.00;95044.53;1042632;28;20056;-68
2022/12/11 01:47:35;;;;;;;26.02;12.40;;;;;;;-2.78;100.00;95052.63;1047002;28;20072;-69
2022/12/11 01:48:08;;;;;;;25.00;12.95;;;;;;;-2.90;100.00;95025.97;1047163;28;20039;-68
2022/12/11 01:48:38;;;;;;;27.58;13.58;;;;;;;-2.78;100.00;95052.63;1043405;28;20826;-68
2022/12/11 01:49:12;;;;;;;25.60;13.00;;;;;;;-2.78;100.00;95047.50;1046448;28;20058;-69
2022/12/11 01:49:43;;;;;;;27.94;14.02;;;;;;;-2.82;100.00;95048.84;1038706;28;20021;-68
2022/12/11 01:50:13;;;;;;;28.40;13.70;;;;;;;-3.02;100.00;95019.81;1038686;28;20022;-71
2022/12/11 01:50:50;;;;;;;26.15;13.70;;;;;;;-2.82;100.00;95051.44;1036902;28;20022;-66
2022/12/11 01:51:24;;;;;;;30.60;14.20;;;;;;;-2.81;100.00;95058.16;1035409;28;20570;-69
2022/12/11 01:52:06;;;;;;;27.24;12.26;;;;;;;-2.93;100.00;95034.03;1034697;28;20516;-69
2022/12/11 01:52:37;;;;;;;27.92;13.64;;;;;;;-2.90;100.00;95041.34;1033264;28;20396;-72
2022/12/11 01:53:09;;;;;;;25.23;13.73;;;;;;;-2.79;100.00;95055.38;1036603;28;20029;-68
2022/12/11 01:53:42;;;;;;;24.54;12.58;;;;;;;-2.81;100.00;95052.25;1040650;28;20022;-68
2022/12/11 01:54:12;;;;;;;28.36;14.62;;;;;;;-2.84;100.00;95048.28;1039800;28;20029;-68
2022/12/11 01:54:43;;;;;;;27.92;13.60;;;;;;;-2.85;100.00;95057.75;1043570;28;20025;-68
2022/12/11 01:55:14;;;;;;;30.10;13.25;;;;;;;-2.83;100.00;95055.00;1042575;28;20025;-70
2022/12/11 01:55:45;;;;;;;27.04;13.82;;;;;;;-2.84;100.00;95053.41;1043106;28;20033;-71
2022/12/11 01:56:15;;;;;;;28.50;13.87;;;;;;;-2.84;100.00;95058.56;1042907;28;20581;-69
2022/12/11 01:56:46;;;;;;;30.70;14.17;;;;;;;-2.82;100.00;95048.84;1043441;28;20107;-68
2022/12/11 01:57:17;;;;;;;27.17;13.40;;;;;;;-2.81;100.00;95057.38;1042764;28;20074;-67
2022/12/11 01:57:48;;;;;;;30.33;13.77;;;;;;;-2.83;100.00;95055.00;1042421;28;20044;-68
2022/12/11 01:58:19;;;;;;;28.98;13.95;;;;;;;-2.81;100.00;95057.38;1043100;28;20139;-69
2022/12/11 01:58:52;;;;;;;27.50;13.42;;;;;;;-2.82;100.00;95051.44;1042891;28;20043;-67
2022/12/11 01:59:24;;;;;;;27.30;14.42;;;;;;;-2.85;100.00;95051.81;1038169;28;20514;-68
2022/12/11 01:59:54;;;;;;;26.00;11.82;;;;;;;-2.85;100.00;95046.69;1036200;28;20555;-68
2022/12/11 02:00:25;;;;;;;27.23;13.47;;;;;;;-2.86;100.00;95052.81;1042636;28;20056;-71
2022/12/11 02:00:55;;;;;;;26.13;13.00;;;;;;;-2.86;100.00;95048.47;1043581;28;20021;-67
2022/12/11 02:01:36;;;;;;;27.37;13.27;;;;;;;-2.85;100.00;95052.63;1050771;28;20016;-69
2022/12/11 02:02:07;;;;;;;;;;;;;;;-2.86;100.00;95045.91;1047166;28;20032;-68
2022/12/11 02:02:37;;;;;;;26.15;12.30;;;;;;;-2.86;100.00;95047.69;1042011;28;19980;-69
2022/12/11 02:03:08;;;;;;;28.60;13.57;;;;;;;-2.87;100.00;95048.66;1038144;28;20041;-69
2022/12/11 02:03:38;;;;;;;26.42;13.23;;;;;;;-2.87;100.00;95054.59;1035340;28;20049;-68
2022/12/11 02:04:09;;;;;;;27.95;13.70;;;;;;;-2.86;100.00;95047.69;1038406;28;20025;-67
2022/12/11 02:04:40;;;;;;;26.12;13.42;;;;;;;-2.87;100.00;95053.81;1034664;28;20034;-69
2022/12/11 02:05:11;;;;;;;29.20;14.53;;;;;;;-2.88;100.00;95049.66;1038923;28;20013;-70
2022/12/11 02:05:41;;;;;;;29.70;13.40;;;;;;;-2.89;100.00;95048.84;1038741;28;20014;-67
2022/12/11 02:06:37;;;;;;;27.35;13.82;;;;;;;-2.90;100.00;95054.19;1042865;28;20071;-68
2022/12/11 02:07:08;;;;;;;33.60;14.50;;;;;;;-2.90;100.00;95049.06;1049772;28;20011;-67
2022/12/11 02:07:45;;;;;;;27.90;14.00;;;;;;;-2.93;100.00;95052.00;1051009;28;20047;-72
2022/12/11 02:08:15;;;;;;;30.02;13.27;;;;;;;-2.92;100.00;95051.03;1047168;28;20020;-67
2022/12/11 02:08:46;;;;;;;27.60;12.83;;;;;;;-2.92;100.00;95051.03;1048567;28;20433;-69
2022/12/11 02:09:23;;;;;;;25.98;13.05;;;;;;;-2.93;100.00;95055.38;1048100;28;20765;-68
2022/12/11 02:09:53;;;;;;;34.30;13.63;;;;;;;-2.91;100.00;95053.41;1039162;28;20116;-69
2022/12/11 02:10:30;;;;;;;28.90;13.77;;;;;;;-2.93;100.00;95050.22;1039689;28;20037;-70
2022/12/11 02:11:14;;;;;;;27.85;13.45;;;;;;;-2.91;100.00;95048.28;1038978;28;20399;-67
2022/12/11 02:12:06;;;;;;;27.77;13.57;;;;;;;-2.91;100.00;95058.53;1045323;28;20059;-72
2022/12/11 02:12:44;;;;;;;29.52;13.70;;;;;;;-2.89;100.00;95050.63;1043879;28;20025;-68
2022/12/11 02:13:22;;;;;;;24.75;11.63;;;;;;;-2.89;100.00;95050.63;1043813;28;20236;-68
2022/12/11 02:14:22;;;;;;;28.83;14.20;;;;;;;-2.89;100.00;95050.63;1047556;28;20016;-68
2022/12/11 02:15:14;;;;;;;28.30;13.02;;;;;;;-2.88;100.00;95052.22;1043240;28;20032;-69
2022/12/11 02:15:59;;;;;;;27.00;12.57;;;;;;;-2.89;100.00;95050.63;1043486;28;20017;-72
2022/12/11 02:16:44;;;;;;;28.70;12.63;;;;;;;-2.87;100.00;95051.25;1036617;28;20018;-68
2022/12/11 02:17:17;;;;;;;26.96;13.08;;;;;;;-2.88;100.00;95047.09;1039678;28;20025;-67
2022/12/11 02:18:14;;;;;;;23.88;12.30;;;;;;;-2.88;100.00;95050.44;1043086;28;20013;-67
2022/12/11 02:18:53;;;;;;;26.92;13.10;;;;;;;-2.88;100.00;95052.22;1047628;28;20048;-72
2022/12/11 02:19:54;;;;;;;27.90;12.88;;;;;;;-2.87;100.00;95052.03;1051529;28;20392;-68
2022/12/11 02:21:00;;;;;;;27.70;12.80;;;;;;;-2.88;100.00;95047.88;1049718;28;20222;-69
2022/12/11 02:21:34;;;;;;;34.08;13.95;;;;;;;-2.89;100.00;95045.50;1043134;28;20107;-70
2022/12/11 02:22:06;;;;;;;29.02;13.57;;;;;;;-2.95;100.00;95041.13;1039072;28;20786;-67
2022/12/11 02:23:12;;;;;;;29.36;13.30;;;;;;;-2.86;100.00;95050.25;1034643;28;20099;-69
2022/12/11 02:24:18;;;;;;;26.67;12.60;;;;;;;-2.86;100.00;95045.91;1038848;28;20017;-68
2022/12/11 02:24:51;;;;;;;29.75;12.88;;;;;;;-2.82;100.00;95037.81;1047553;28;20098;-67
2022/12/11 02:25:35;;;;;;;24.42;12.80;;;;;;;-2.85;100.00;95044.13;1047432;28;20060;-69
2022/12/11 02:26:11;;;;;;;35.67;14.73;;;;;;;-2.85;100.00;95044.94;1051939;28;20020;-68
2022/12/11 02:26:50;;;;;;;26.02;12.60;;;;;;;-2.84;100.00;95043.16;1052057;28;20489;-69
2022/12/11 02:27:45;;;;;;;25.63;12.25;;;;;;;-2.84;100.00;95045.72;1052553;28;20031;-68
2022/12/11 02:28:20;;;;;;;25.67;12.95;;;;;;;-2.99;100.00;95029.69;1049558;28;20024;-68
2022/12/11 02:28:55;;;;;;;26.90;13.40;;;;;;;-2.84;100.00;95043.16;1047943;28;20016;-68
2022/12/11 02:29:32;;;;;;;30.95;13.93;;;;;;;-2.86;100.00;95050.25;1047936;28;20502;-66